createdAt,value
2023-02-16T00:00:06.228Z,100851.87
2023-02-16T00:01:21.625Z,100855.40
2023-02-16T00:02:24.261Z,100847.37
2023-02-16T00:03:26.912Z,100850.05
2023-02-16T00:04:31.023Z,100842.91
2023-02-16T00:05:34.462Z,100854.47
2023-02-16T00:06:37.740Z,100851.78
2023-02-16T00:07:40.222Z,100848.25
2023-02-16T00:08:48.157Z,100854.47
2023-02-16T00:09:50.661Z,100852.67
2023-02-16T00:11:14.266Z,100852.67
2023-02-16T00:12:37.368Z,100855.34
2023-02-16T00:15:00.967Z,100851.23
2023-02-16T00:16:09.433Z,100849.11
2023-02-16T00:17:11.903Z,100847.37
2023-02-16T00:19:35.103Z,100861.94
2023-02-16T00:20:38.233Z,100858.02
2023-02-16T00:21:40.904Z,100854.47
2023-02-16T00:22:43.919Z,100857.05
2023-02-16T00:23:49.302Z,100859.73
2023-02-16T00:24:51.938Z,100855.27
2023-02-16T00:25:55.552Z,100858.80
2023-02-16T00:26:58.434Z,100860.53
2023-02-16T00:28:02.662Z,100851.63
2023-02-16T00:29:19.773Z,100858.72
2023-02-16T00:30:25.948Z,100852.42
2023-02-16T00:31:32.323Z,100851.48
2023-02-16T00:32:34.884Z,100850.52
2023-02-16T00:33:39.579Z,100856.76
2023-02-16T00:34:42.280Z,100856.76
2023-02-16T00:35:44.806Z,100854.08
2023-02-16T00:36:47.401Z,100849.67
2023-02-16T00:37:49.617Z,100851.41
2023-02-16T00:38:53.218Z,100861.17
2023-02-16T00:39:55.593Z,100859.35
2023-02-16T00:40:58.387Z,100862.03
2023-02-16T00:43:27.427Z,100856.98
2023-02-16T00:44:36.247Z,100853.14
2023-02-16T00:45:38.820Z,100856.67
2023-02-16T00:46:43.133Z,100854.85
2023-02-16T00:47:47.767Z,100854.00
2023-02-16T00:48:52.766Z,100853.06
2023-02-16T00:49:55.268Z,100854.77
2023-02-16T00:50:58.509Z,100845.97
2023-02-16T00:52:01.004Z,100846.73
2023-02-16T00:53:03.433Z,100850.30
2023-02-16T00:54:06.564Z,100845.80
2023-02-16T00:55:14.837Z,100854.69
2023-02-16T00:56:18.893Z,100852.89
2023-02-16T00:57:21.242Z,100853.83
2023-02-16T00:58:34.144Z,100852.89
2023-02-16T00:59:36.745Z,100853.83
2023-02-16T01:00:44.462Z,100850.30
2023-02-16T01:01:48.933Z,100850.30
2023-02-16T01:02:53.160Z,100852.98
2023-02-16T01:03:55.518Z,100848.48
2023-02-16T01:05:00.662Z,100849.33
2023-02-16T01:06:22.499Z,100835.09
2023-02-16T01:07:45.492Z,100839.52
2023-02-16T01:09:06.817Z,100827.06
2023-02-16T01:10:29.712Z,100833.27
2023-02-16T01:11:32.320Z,100830.59
2023-02-16T01:12:34.673Z,100828.89
2023-02-16T01:15:08.374Z,100834.71
2023-02-16T01:16:17.208Z,100830.84
2023-02-16T01:17:19.638Z,100833.52
2023-02-16T01:18:22.882Z,100832.67
2023-02-16T01:19:27.050Z,100824.64
2023-02-16T01:20:29.477Z,100831.73
2023-02-16T01:21:32.563Z,100826.38
2023-02-16T01:22:36.975Z,100825.50
2023-02-16T01:23:41.282Z,100824.64
2023-02-16T01:24:45.148Z,100828.09
2023-02-16T01:25:48.906Z,100830.77
2023-02-16T01:26:52.912Z,100825.41
2023-02-16T01:27:55.210Z,100826.30
2023-02-16T01:28:57.841Z,100827.15
2023-02-16T01:30:00.756Z,100830.69
2023-02-16T01:31:03.945Z,100831.56
2023-02-16T01:32:07.335Z,100830.69
2023-02-16T01:33:11.707Z,100837.77
2023-02-16T01:34:14.513Z,100829.74
2023-02-16T01:35:20.450Z,100832.42
2023-02-16T01:36:25.880Z,100823.45
2023-02-16T01:37:28.272Z,100824.30
2023-02-16T01:38:30.776Z,100829.74
2023-02-16T01:39:35.015Z,100827.92
2023-02-16T01:40:42.389Z,100826.13
2023-02-16T01:41:57.261Z,100826.98
2023-02-16T01:43:08.440Z,100825.19
2023-02-16T01:44:14.413Z,100829.66
2023-02-16T01:45:19.240Z,100827.78
2023-02-16T01:46:31.431Z,100828.72
2023-02-16T01:47:54.464Z,100829.66
2023-02-16T01:48:57.399Z,100829.66
2023-02-16T01:50:03.596Z,100832.34
2023-02-16T01:51:13.165Z,100829.74
2023-02-16T01:53:51.213Z,100830.92
2023-02-16T01:55:17.298Z,100828.89
2023-02-16T01:58:21.655Z,100832.80
2023-02-16T01:59:45.582Z,100829.91
2023-02-16T02:00:55.589Z,100825.50
2023-02-16T02:01:58.977Z,100826.44
2023-02-16T02:04:44.215Z,100822.34
2023-02-16T02:05:48.070Z,100826.44
2023-02-16T02:06:51.596Z,100827.32
2023-02-16T02:07:58.869Z,100829.11
2023-02-16T02:09:08.169Z,100829.06
2023-02-16T02:11:34.951Z,100825.80
2023-02-16T02:14:09.652Z,100823.03
2023-02-16T02:15:12.688Z,100819.13
2023-02-16T02:16:17.961Z,100818.27
2023-02-16T02:17:23.371Z,100830.69
2023-02-16T02:18:25.849Z,100833.36
2023-02-16T02:19:30.043Z,100832.42
2023-02-16T02:21:29.537Z,100834.16
2023-02-16T02:23:25.120Z,100832.42
2023-02-16T02:26:39.677Z,100832.12
2023-02-16T02:29:24.975Z,100835.18
2023-02-16T02:30:44.183Z,100839.34
2023-02-16T02:32:11.767Z,100838.57
2023-02-16T02:35:09.636Z,100834.71
2023-02-16T02:36:16.250Z,100837.94
2023-02-16T02:37:37.995Z,100834.48
2023-02-16T02:39:02.334Z,100833.60
2023-02-16T02:40:29.317Z,100827.45
2023-02-16T02:42:03.306Z,100829.27
2023-02-16T02:43:29.293Z,100831.06
2023-02-16T02:44:41.468Z,100830.20
2023-02-16T02:45:47.580Z,100828.55
2023-02-16T02:46:50.728Z,100829.48
2023-02-16T02:47:55.194Z,100834.91
2023-02-16T02:48:59.683Z,100828.62
2023-02-16T02:50:02.133Z,100830.45
2023-02-16T02:51:30.348Z,100826.89
2023-02-16T02:52:35.327Z,100824.13
2023-02-16T02:53:42.117Z,100830.37
2023-02-16T02:55:03.861Z,100830.37
2023-02-16T02:56:26.131Z,100821.38
2023-02-16T02:57:56.870Z,100824.05
2023-02-16T02:59:20.859Z,100823.97
2023-02-16T03:00:43.473Z,100824.86
2023-02-16T03:01:49.613Z,100828.38
2023-02-16T03:02:54.984Z,100821.24
2023-02-16T03:03:57.464Z,100826.59
2023-02-16T03:04:59.882Z,100822.09
2023-02-16T03:06:13.381Z,100824.86
2023-02-16T03:07:15.884Z,100822.98
2023-02-16T03:08:21.260Z,100824.72
2023-02-16T03:09:24.603Z,100825.58
2023-02-16T03:10:45.829Z,100815.89
2023-02-16T03:12:07.607Z,100815.89
2023-02-16T03:14:51.645Z,100823.07
2023-02-16T03:15:55.373Z,100819.13
2023-02-16T03:17:17.847Z,100820.09
2023-02-16T03:18:38.704Z,100821.80
2023-02-16T03:20:00.332Z,100820.02
2023-02-16T03:21:22.746Z,100816.45
2023-02-16T03:22:43.539Z,100815.59
2023-02-16T03:24:06.132Z,100816.45
2023-02-16T03:25:28.009Z,100806.72
2023-02-16T03:26:49.168Z,100813.86
2023-02-16T03:28:10.183Z,100812.15
2023-02-16T03:30:29.825Z,100809.86
2023-02-16T03:31:34.802Z,100805.14
2023-02-16T03:32:38.012Z,100809.61
2023-02-16T03:33:40.474Z,100809.61
2023-02-16T03:34:43.130Z,100805.14
2023-02-16T03:35:45.561Z,100806.84
2023-02-16T03:36:49.867Z,100805.06
2023-02-16T03:37:53.267Z,100806.80
2023-02-16T03:38:55.636Z,100801.36
2023-02-16T03:40:16.345Z,100808.42
2023-02-16T03:41:19.338Z,100808.38
2023-02-16T03:42:22.102Z,100805.70
2023-02-16T03:43:25.758Z,100804.81
2023-02-16T03:44:28.618Z,100810.08
2023-02-16T03:45:32.458Z,100810.08
2023-02-16T03:46:35.353Z,100798.44
2023-02-16T03:47:38.172Z,100786.33
2023-02-16T03:48:40.825Z,100806.47
2023-02-16T03:49:43.440Z,100807.31
2023-02-16T03:50:46.138Z,100799.29
2023-02-16T03:51:49.102Z,100804.56
2023-02-16T03:52:51.595Z,100797.50
2023-02-16T03:53:54.876Z,100801.88
2023-02-16T03:54:57.220Z,100803.63
2023-02-16T03:55:59.587Z,100810.71
2023-02-16T03:57:02.981Z,100801.83
2023-02-16T03:58:06.379Z,100791.05
2023-02-16T03:59:08.955Z,100791.05
2023-02-16T04:00:12.491Z,100804.42
2023-02-16T04:01:19.101Z,100796.39
2023-02-16T04:02:21.852Z,100794.57
2023-02-16T04:03:25.184Z,100800.78
2023-02-16T04:04:28.712Z,100799.07
2023-02-16T04:05:31.442Z,100797.16
2023-02-16T04:06:33.836Z,100793.64
2023-02-16T04:07:36.597Z,100782.93
2023-02-16T04:08:41.713Z,100790.02
2023-02-16T04:09:44.097Z,100784.67
2023-02-16T04:10:46.517Z,100782.84
2023-02-16T04:12:07.787Z,100781.99
2023-02-16T04:13:10.155Z,100784.67
2023-02-16T04:14:13.636Z,100782.84
2023-02-16T04:16:34.591Z,100785.90
2023-02-16T04:17:37.017Z,100785.52
2023-02-16T04:18:39.977Z,100781.11
2023-02-16T04:19:42.391Z,100784.72
2023-02-16T04:20:45.211Z,100785.61
2023-02-16T04:21:47.541Z,100782.05
2023-02-16T04:22:50.130Z,100778.43
2023-02-16T04:23:52.723Z,100784.59
2023-02-16T04:24:55.086Z,100766.79
2023-02-16T04:25:57.957Z,100767.64
2023-02-16T04:27:00.506Z,100771.20
2023-02-16T04:28:03.162Z,100765.85
2023-02-16T04:29:05.666Z,100771.20
2023-02-16T04:30:12.478Z,100764.97
2023-02-16T04:31:15.519Z,100766.70
2023-02-16T04:32:17.931Z,100763.17
2023-02-16T04:33:20.230Z,100771.20
2023-02-16T04:34:22.875Z,100764.11
2023-02-16T04:35:25.745Z,100766.79
2023-02-16T04:36:29.346Z,100767.64
2023-02-16T04:37:32.163Z,100763.17
2023-02-16T04:38:34.648Z,100768.53
2023-02-16T04:39:36.843Z,100764.88
2023-02-16T04:40:40.143Z,100763.17
2023-02-16T04:41:43.172Z,100764.88
2023-02-16T04:42:45.531Z,100756.85
2023-02-16T04:43:47.874Z,100762.20
2023-02-16T04:44:50.352Z,100765.77
2023-02-16T04:45:53.228Z,100758.59
2023-02-16T04:46:55.826Z,100755.06
2023-02-16T04:47:58.242Z,100752.39
2023-02-16T04:49:03.026Z,100754.17
2023-02-16T04:50:07.039Z,100761.27
2023-02-16T04:51:09.513Z,100754.17
2023-02-16T04:52:12.822Z,100755.06
2023-02-16T04:53:15.082Z,100756.85
2023-02-16T04:54:18.268Z,100762.20
2023-02-16T04:55:20.643Z,100761.35
2023-02-16T04:56:23.179Z,100756.00
2023-02-16T04:57:25.565Z,100761.35
2023-02-16T04:58:28.236Z,100758.67
2023-02-16T04:59:30.528Z,100760.50
2023-02-16T05:00:35.118Z,100747.97
2023-02-16T05:01:37.694Z,100758.67
2023-02-16T05:02:40.795Z,100759.53
2023-02-16T05:03:43.072Z,100746.15
2023-02-16T05:04:45.643Z,100750.65
2023-02-16T05:05:48.163Z,100750.65
2023-02-16T05:06:50.692Z,100756.85
2023-02-16T05:07:53.654Z,100748.83
2023-02-16T05:08:56.003Z,100754.17
2023-02-16T05:09:58.493Z,100751.50
2023-02-16T05:11:19.339Z,100755.06
2023-02-16T05:12:40.361Z,100753.33
2023-02-16T05:15:16.130Z,100750.93
2023-02-16T05:16:22.929Z,100756.00
2023-02-16T05:17:26.036Z,100757.83
2023-02-16T05:18:28.874Z,100755.23
2023-02-16T05:19:31.611Z,100754.34
2023-02-16T05:20:53.273Z,100749.88
2023-02-16T05:21:56.349Z,100747.20
2023-02-16T05:23:01.386Z,100748.05
2023-02-16T05:24:08.889Z,100756.09
2023-02-16T05:25:11.565Z,100749.00
2023-02-16T05:26:14.895Z,100758.77
2023-02-16T05:27:19.212Z,100758.77
2023-02-16T05:28:21.609Z,100758.77
2023-02-16T05:29:24.311Z,100748.05
2023-02-16T05:30:27.029Z,100751.59
2023-02-16T05:31:29.987Z,100751.59
2023-02-16T05:32:32.580Z,100755.15
2023-02-16T05:33:35.360Z,100752.47
2023-02-16T05:34:38.301Z,100749.80
2023-02-16T05:35:40.477Z,100756.00
2023-02-16T05:36:43.236Z,100748.83
2023-02-16T05:37:46.027Z,100754.17
2023-02-16T05:38:49.533Z,100758.67
2023-02-16T05:39:52.598Z,100757.73
2023-02-16T05:40:55.214Z,100755.06
2023-02-16T05:41:57.891Z,100755.06
2023-02-16T05:43:01.120Z,100755.91
2023-02-16T05:44:03.992Z,100756.00
2023-02-16T05:45:07.230Z,100756.80
2023-02-16T05:46:09.848Z,100755.06
2023-02-16T05:47:12.388Z,100758.59
2023-02-16T05:48:14.889Z,100755.06
2023-02-16T05:49:18.379Z,100755.91
2023-02-16T05:50:22.168Z,100755.06
2023-02-16T05:51:25.040Z,100756.80
2023-02-16T05:52:28.224Z,100755.91
2023-02-16T05:53:32.300Z,100759.48
2023-02-16T05:54:34.970Z,100759.48
2023-02-16T05:55:37.271Z,100756.80
2023-02-16T05:56:40.544Z,100754.12
2023-02-16T05:57:45.469Z,100750.56
2023-02-16T05:58:48.153Z,100754.12
2023-02-16T05:59:50.994Z,100749.63
2023-02-16T06:00:53.889Z,100742.53
2023-02-16T06:01:56.310Z,100746.15
2023-02-16T06:02:59.647Z,100753.23
2023-02-16T06:04:03.210Z,100739.86
2023-02-16T06:05:07.304Z,100742.53
2023-02-16T06:06:11.960Z,100749.63
2023-02-16T06:07:15.188Z,100744.36
2023-02-16T06:08:17.699Z,100746.09
2023-02-16T06:09:20.391Z,100748.77
2023-02-16T06:10:25.406Z,100751.45
2023-02-16T06:11:37.558Z,100753.23
2023-02-16T06:12:40.073Z,100750.56
2023-02-16T06:13:42.536Z,100747.89
2023-02-16T06:14:44.852Z,100748.83
2023-02-16T06:15:47.691Z,100755.06
2023-02-16T06:16:56.236Z,100755.06
2023-02-16T06:17:59.410Z,100746.15
2023-02-16T06:19:02.282Z,100750.56
2023-02-16T06:20:06.460Z,100749.70
2023-02-16T06:21:09.563Z,100747.97
2023-02-16T06:22:12.163Z,100751.50
2023-02-16T06:23:15.262Z,100748.83
2023-02-16T06:24:18.942Z,100743.47
2023-02-16T06:25:21.465Z,100747.03
2023-02-16T06:26:24.397Z,100752.39
2023-02-16T06:27:28.755Z,100749.70
2023-02-16T06:28:32.097Z,100751.50
2023-02-16T06:29:35.590Z,100748.83
2023-02-16T06:30:38.531Z,100750.56
2023-02-16T06:31:41.259Z,100750.56
2023-02-16T06:32:43.969Z,100750.56
2023-02-16T06:33:47.275Z,100750.56
2023-02-16T06:34:49.794Z,100755.91
2023-02-16T06:35:53.325Z,100754.17
2023-02-16T06:36:55.953Z,100742.53
2023-02-16T06:37:59.298Z,100749.70
2023-02-16T06:39:01.723Z,100746.09
2023-02-16T06:40:06.519Z,100750.56
2023-02-16T06:41:08.924Z,100741.69
2023-02-16T06:42:12.467Z,100742.53
2023-02-16T06:43:14.931Z,100744.27
2023-02-16T06:44:17.752Z,100739.86
2023-02-16T06:45:22.046Z,100746.09
2023-02-16T06:46:25.460Z,100741.59
2023-02-16T06:47:27.971Z,100743.42
2023-02-16T06:48:31.294Z,100751.45
2023-02-16T06:49:34.721Z,100746.95
2023-02-16T06:50:38.573Z,100741.59
2023-02-16T06:51:41.031Z,100738.83
2023-02-16T06:52:43.764Z,100737.09
2023-02-16T06:53:47.475Z,100738.83
2023-02-16T06:54:50.282Z,100738.83
2023-02-16T06:55:52.957Z,100734.33
2023-02-16T06:56:56.583Z,100732.55
2023-02-16T06:57:59.435Z,100738.75
2023-02-16T06:59:02.248Z,100735.13
2023-02-16T07:00:08.046Z,100739.59
2023-02-16T07:01:11.532Z,100728.89
2023-02-16T07:02:15.056Z,100732.45
2023-02-16T07:03:18.712Z,100733.31
2023-02-16T07:04:22.768Z,100729.78
2023-02-16T07:05:25.441Z,100730.63
2023-02-16T07:06:28.570Z,100727.87
2023-02-16T07:07:32.208Z,100727.02
2023-02-16T07:08:35.684Z,100725.28
2023-02-16T07:09:38.358Z,100731.43
2023-02-16T07:10:50.005Z,100719.84
2023-02-16T07:11:51.286Z,100729.69
2023-02-16T07:12:54.098Z,100723.40
2023-02-16T07:13:57.866Z,100717.16
2023-02-16T07:15:00.421Z,100721.58
2023-02-16T07:16:04.956Z,100724.25
2023-02-16T07:17:07.419Z,100719.75
2023-02-16T07:18:10.347Z,100727.78
2023-02-16T07:19:13.162Z,100725.11
2023-02-16T07:20:18.991Z,100722.42
2023-02-16T07:21:21.787Z,100725.99
2023-02-16T07:22:24.147Z,100723.31
2023-02-16T07:23:28.034Z,100727.73
2023-02-16T07:24:30.392Z,100727.78
2023-02-16T07:25:35.934Z,100725.91
2023-02-16T07:26:38.927Z,100724.16
2023-02-16T07:27:41.380Z,100719.70
2023-02-16T07:28:44.514Z,100723.23
2023-02-16T07:29:47.137Z,100728.58
2023-02-16T07:30:50.518Z,100724.97
2023-02-16T07:31:54.107Z,100727.64
2023-02-16T07:32:57.253Z,100717.88
2023-02-16T07:33:59.761Z,100721.41
2023-02-16T07:35:02.204Z,100716.05
2023-02-16T07:36:07.091Z,100716.94
2023-02-16T07:37:09.519Z,100714.25
2023-02-16T07:38:13.300Z,100709.76
2023-02-16T07:39:16.040Z,100708.91
2023-02-16T07:40:20.415Z,100707.08
2023-02-16T07:41:23.100Z,100718.64
2023-02-16T07:42:31.043Z,100705.34
2023-02-16T07:43:34.332Z,100708.81
2023-02-16T07:44:36.806Z,100708.81
2023-02-16T07:45:39.812Z,100699.05
2023-02-16T07:46:42.438Z,100699.81
2023-02-16T07:47:44.868Z,100693.61
2023-02-16T07:48:48.992Z,100691.88
2023-02-16T07:49:51.584Z,100699.05
2023-02-16T07:50:55.099Z,100693.70
2023-02-16T07:51:59.785Z,100689.45
2023-02-16T07:53:02.808Z,100689.45
2023-02-16T07:54:05.713Z,100695.84
2023-02-16T07:55:09.760Z,100694.10
2023-02-16T07:56:30.647Z,100695.08
2023-02-16T07:57:33.660Z,100701.37
2023-02-16T07:58:37.220Z,100694.36
2023-02-16T07:59:40.033Z,100701.54
2023-02-16T08:00:43.195Z,100695.48
2023-02-16T08:01:46.385Z,100700.91
2023-02-16T08:02:49.444Z,100691.33
2023-02-16T08:03:53.159Z,100694.94
2023-02-16T08:04:57.198Z,100687.00
2023-02-16T08:06:00.954Z,100693.32
2023-02-16T08:07:03.630Z,100694.34
2023-02-16T08:08:06.532Z,100687.34
2023-02-16T08:09:09.934Z,100686.55
2023-02-16T08:10:13.009Z,100687.48
2023-02-16T08:11:19.086Z,100693.77
2023-02-16T08:12:21.791Z,100687.53
2023-02-16T08:13:24.406Z,100688.50
2023-02-16T08:14:27.890Z,100688.50
2023-02-16T08:15:31.086Z,100689.36
2023-02-16T08:16:34.770Z,100684.01
2023-02-16T08:18:52.880Z,100682.67
2023-02-16T08:19:55.796Z,100684.09
2023-02-16T08:21:04.505Z,100682.36
2023-02-16T08:22:05.312Z,100684.17
2023-02-16T08:23:09.794Z,100678.03
2023-02-16T08:24:12.849Z,100683.38
2023-02-16T08:25:17.777Z,100677.17
2023-02-16T08:26:23.417Z,100677.17
2023-02-16T08:27:27.318Z,100675.44
2023-02-16T08:28:29.802Z,100671.91
2023-02-16T08:29:32.909Z,100670.97
2023-02-16T08:30:37.547Z,100678.03
2023-02-16T08:31:41.116Z,100671.83
2023-02-16T08:32:45.301Z,100677.17
2023-02-16T08:33:49.074Z,100675.35
2023-02-16T08:34:52.024Z,100670.00
2023-02-16T08:35:54.401Z,100670.97
2023-02-16T08:36:57.068Z,100675.44
2023-02-16T08:38:00.518Z,100670.97
2023-02-16T08:39:06.006Z,100678.11
2023-02-16T08:40:09.666Z,100670.97
2023-02-16T08:41:12.656Z,100668.30
2023-02-16T08:43:30.488Z,100674.91
2023-02-16T08:44:33.933Z,100672.00
2023-02-16T08:45:37.407Z,100669.32
2023-02-16T08:46:41.143Z,100676.41
2023-02-16T08:47:44.123Z,100672.84
2023-02-16T08:48:46.862Z,100666.65
2023-02-16T08:49:50.521Z,100667.50
2023-02-16T08:50:53.225Z,100671.11
2023-02-16T08:51:58.351Z,100673.78
2023-02-16T08:53:06.279Z,100676.41
2023-02-16T08:54:12.961Z,100676.23
2023-02-16T08:55:20.803Z,100676.92
2023-02-16T08:56:26.262Z,100681.25
2023-02-16T08:57:29.748Z,100680.30
2023-02-16T08:58:32.844Z,100676.64
2023-02-16T08:59:35.130Z,100675.70
2023-02-16T09:00:38.337Z,100680.00
2023-02-16T09:01:41.444Z,100670.94
2023-02-16T09:02:44.124Z,100670.94
2023-02-16T09:03:48.440Z,100674.41
2023-02-16T09:04:51.272Z,100672.59
2023-02-16T09:05:54.397Z,100673.39
2023-02-16T09:06:57.822Z,100663.54
2023-02-16T09:08:00.328Z,100664.39
2023-02-16T09:09:04.487Z,100671.48
2023-02-16T09:10:07.809Z,100666.12
2023-02-16T09:11:15.368Z,100667.86
2023-02-16T09:12:17.822Z,100668.72
2023-02-16T09:13:20.760Z,100663.36
2023-02-16T09:14:23.443Z,100659.84
2023-02-16T09:15:27.519Z,100659.75
2023-02-16T09:16:33.312Z,100661.57
2023-02-16T09:17:36.850Z,100657.07
2023-02-16T09:18:39.707Z,100649.89
2023-02-16T09:19:43.960Z,100656.13
2023-02-16T09:20:47.200Z,100652.58
2023-02-16T09:21:55.578Z,100650.70
2023-02-16T09:22:58.874Z,100648.87
2023-02-16T09:24:02.916Z,100653.28
2023-02-16T09:25:08.570Z,100645.25
2023-02-16T09:26:12.044Z,100647.93
2023-02-16T09:27:14.839Z,100651.37
2023-02-16T09:28:17.768Z,100649.58
2023-02-16T09:29:20.677Z,100646.91
2023-02-16T09:30:24.252Z,100645.93
2023-02-16T09:31:28.970Z,100645.93
2023-02-16T09:32:31.992Z,100646.81
2023-02-16T09:33:35.026Z,100650.34
2023-02-16T09:34:38.068Z,100644.90
2023-02-16T09:35:41.481Z,100648.55
2023-02-16T09:36:44.109Z,100650.25
2023-02-16T09:37:49.248Z,100650.25
2023-02-16T09:38:53.593Z,100649.31
2023-02-16T09:39:56.964Z,100643.02
2023-02-16T09:41:08.932Z,100641.19
2023-02-16T09:42:21.648Z,100639.41
2023-02-16T09:43:37.793Z,100645.52
2023-02-16T09:45:03.670Z,100640.16
2023-02-16T09:46:09.582Z,100638.34
2023-02-16T09:48:42.101Z,100631.45
2023-02-16T09:49:44.639Z,100610.55
2023-02-16T09:50:54.387Z,100633.87
2023-02-16T09:51:57.097Z,100635.66
2023-02-16T09:53:13.683Z,100624.02
2023-02-16T09:54:40.688Z,100629.37
2023-02-16T09:55:47.308Z,100630.22
2023-02-16T09:56:56.268Z,100625.75
2023-02-16T09:59:41.472Z,100624.27
2023-02-16T10:01:03.192Z,100625.75
2023-02-16T10:02:26.160Z,100627.55
2023-02-16T10:03:41.921Z,100624.86
2023-02-16T10:04:57.653Z,100623.16
2023-02-16T10:06:15.607Z,100611.57
2023-02-16T10:07:24.910Z,100615.13
2023-02-16T10:09:45.330Z,100616.33
2023-02-16T10:11:03.883Z,100612.45
2023-02-16T10:12:09.331Z,100616.92
2023-02-16T10:13:17.983Z,100610.63
2023-02-16T10:14:34.189Z,100614.16
2023-02-16T10:15:38.119Z,100610.54
2023-02-16T10:16:42.449Z,100610.54
2023-02-16T10:18:59.662Z,100605.44
2023-02-16T10:20:06.187Z,100603.30
2023-02-16T10:21:16.017Z,100608.66
2023-02-16T10:22:35.672Z,100608.56
2023-02-16T10:23:57.337Z,100601.39
2023-02-16T10:25:21.760Z,100602.27
2023-02-16T10:27:21.521Z,100599.59
2023-02-16T10:28:57.773Z,100595.94
2023-02-16T10:30:00.505Z,100591.56
2023-02-16T10:32:28.275Z,100588.34
2023-02-16T10:33:46.523Z,100591.62
2023-02-16T10:34:51.369Z,100587.24
2023-02-16T10:35:58.093Z,100586.36
2023-02-16T10:37:08.996Z,100586.27
2023-02-16T10:38:15.193Z,100587.24
2023-02-16T10:39:24.248Z,100586.27
2023-02-16T10:41:48.537Z,100577.54
2023-02-16T10:43:23.860Z,100579.03
2023-02-16T10:44:29.999Z,100573.67
2023-02-16T10:45:55.972Z,100566.59
2023-02-16T10:47:03.846Z,100572.73
2023-02-16T10:49:02.804Z,100570.05
2023-02-16T10:50:29.337Z,100561.14
2023-02-16T10:51:34.341Z,100563.82
2023-02-16T10:52:38.287Z,100572.83
2023-02-16T10:53:46.394Z,100566.59
2023-02-16T10:54:48.879Z,100567.53
2023-02-16T10:55:51.316Z,100557.70
2023-02-16T10:57:01.751Z,100555.87
2023-02-16T10:58:07.621Z,100548.73
2023-02-16T10:59:22.154Z,100554.94
2023-02-16T11:00:29.253Z,100549.58
2023-02-16T11:01:37.656Z,100553.20
2023-02-16T11:02:46.069Z,100549.58
2023-02-16T11:03:51.022Z,100550.53
2023-02-16T11:04:55.384Z,100546.05
2023-02-16T11:05:58.810Z,100548.73
2023-02-16T11:07:03.526Z,100547.85
2023-02-16T11:08:07.141Z,100548.73
2023-02-16T11:09:10.620Z,100544.23
2023-02-16T11:10:36.849Z,100545.17
2023-02-16T11:11:41.320Z,100542.50
2023-02-16T11:12:43.983Z,100536.30
2023-02-16T11:13:48.343Z,100542.50
2023-02-16T11:16:22.532Z,100542.83
2023-02-16T11:17:25.519Z,100542.50
2023-02-16T11:18:34.497Z,100540.70
2023-02-16T11:19:37.000Z,100537.23
2023-02-16T11:20:47.116Z,100535.41
2023-02-16T11:21:52.643Z,100537.14
2023-02-16T11:24:26.601Z,100527.64
2023-02-16T11:25:28.968Z,100526.44
2023-02-16T11:26:32.405Z,100522.91
2023-02-16T11:27:37.345Z,100519.34
2023-02-16T11:28:45.434Z,100516.67
2023-02-16T11:29:50.678Z,100517.55
2023-02-16T11:30:59.846Z,100515.73
2023-02-16T11:32:10.480Z,100513.94
2023-02-16T11:33:22.329Z,100509.43
2023-02-16T11:34:32.043Z,100513.94
2023-02-16T11:35:38.283Z,100515.73
2023-02-16T11:36:48.080Z,100514.87
2023-02-16T11:37:51.656Z,100505.02
2023-02-16T11:39:06.780Z,100504.17
2023-02-16T11:41:35.159Z,100505.34
2023-02-16T11:42:45.231Z,100497.94
2023-02-16T11:43:47.750Z,100503.38
2023-02-16T11:44:54.640Z,100501.59
2023-02-16T11:47:24.551Z,100486.70
2023-02-16T11:48:28.892Z,100494.41
2023-02-16T11:49:37.134Z,100487.32
2023-02-16T11:50:42.642Z,100489.05
2023-02-16T11:51:46.526Z,100484.64
2023-02-16T11:52:51.019Z,100479.29
2023-02-16T11:54:00.107Z,100480.17
2023-02-16T11:55:03.321Z,100486.38
2023-02-16T11:56:23.393Z,100480.17
2023-02-16T11:57:29.115Z,100474.82
2023-02-16T11:58:31.799Z,100476.52
2023-02-16T11:59:38.324Z,100468.48
2023-02-16T12:00:44.170Z,100464.11
2023-02-16T12:02:12.031Z,100465.81
2023-02-16T12:03:31.533Z,100463.14
2023-02-16T12:06:07.402Z,100455.36
2023-02-16T12:07:17.013Z,100458.66
2023-02-16T12:10:26.829Z,100446.55
2023-02-16T12:11:55.424Z,100448.90
2023-02-16T12:13:07.345Z,100446.22
2023-02-16T12:14:47.661Z,100449.75
2023-02-16T12:16:02.549Z,100438.20
2023-02-16T12:17:44.242Z,100437.34
2023-02-16T12:19:09.333Z,100442.70
2023-02-16T12:20:16.817Z,100433.87
2023-02-16T12:21:48.835Z,100428.62
2023-02-16T12:22:59.200Z,100433.13
2023-02-16T12:25:39.138Z,100420.16
2023-02-16T12:28:23.298Z,100416.59
2023-02-16T12:29:39.349Z,100428.81
2023-02-16T12:31:00.441Z,100420.78
2023-02-16T12:32:22.304Z,100426.13
2023-02-16T12:33:53.853Z,100418.95
2023-02-16T12:35:18.065Z,100421.53
2023-02-16T12:38:15.896Z,100420.16
2023-02-16T12:39:25.545Z,100424.31
2023-02-16T12:40:33.436Z,100411.91
2023-02-16T12:42:04.973Z,100410.17
2023-02-16T12:43:27.977Z,100415.42
2023-02-16T12:44:46.389Z,100418.02
2023-02-16T12:45:49.166Z,100418.95
2023-02-16T12:46:56.369Z,100415.33
2023-02-16T12:48:09.582Z,100408.25
2023-02-16T12:51:33.685Z,100408.41
2023-02-16T12:53:07.511Z,100410.73
2023-02-16T12:55:55.470Z,100404.75
2023-02-16T12:57:08.155Z,100409.03
2023-02-16T12:58:19.581Z,100401.10
2023-02-16T13:00:48.962Z,100391.45
2023-02-16T13:01:52.737Z,100398.33
2023-02-16T13:03:00.629Z,100392.98
2023-02-16T13:04:09.336Z,100392.98
2023-02-16T13:05:18.190Z,100397.35
2023-02-16T13:06:34.555Z,100393.83
2023-02-16T13:09:34.175Z,100391.27
2023-02-16T13:10:40.153Z,100395.46
2023-02-16T13:13:16.540Z,100387.73
2023-02-16T13:14:28.101Z,100394.61
2023-02-16T13:15:52.382Z,100394.67
2023-02-16T13:17:07.499Z,100393.73
2023-02-16T13:18:22.298Z,100395.46
2023-02-16T13:19:26.227Z,100394.61
2023-02-16T13:20:29.380Z,100398.98
2023-02-16T13:21:51.020Z,100391.94
2023-02-16T13:22:55.823Z,100396.31
2023-02-16T13:25:37.329Z,100385.91
2023-02-16T13:26:53.099Z,100383.91
2023-02-16T13:28:22.382Z,100382.08
2023-02-16T13:29:47.349Z,100385.70
2023-02-16T13:31:18.167Z,100374.14
2023-02-16T13:32:45.389Z,100385.80
2023-02-16T13:33:57.970Z,100376.92
2023-02-16T13:36:52.121Z,100371.08
2023-02-16T13:38:23.160Z,100370.88
2023-02-16T13:41:22.488Z,100369.39
2023-02-16T13:42:44.104Z,100368.30
2023-02-16T13:43:55.956Z,100366.56
2023-02-16T13:45:04.701Z,100363.03
2023-02-16T13:46:14.407Z,100366.56
2023-02-16T13:47:21.274Z,100357.69
2023-02-16T13:48:38.194Z,100360.36
2023-02-16T13:49:44.139Z,100360.36
2023-02-16T13:50:48.721Z,100368.39